sensor_id;sensor_type;location;lat;lon;timestamp;pressure;altitude;pressure_sealevel;temperature;humidity
81641;BME280;71053;50.722;-1.944;2023-08-06T00:01:24;101030.04;;;13.24;81.81
81641;BME280;71053;50.722;-1.944;2023-08-06T00:03:49;101031.99;;;13.25;81.87
81641;BME280;71053;50.722;-1.944;2023-08-06T00:06:14;101033.85;;;13.28;81.60
81641;BME280;71053;50.722;-1.944;2023-08-06T00:08:40;101036.74;;;13.22;82.11
81641;BME280;71053;50.722;-1.944;2023-08-06T00:11:05;101037.87;;;13.27;81.96
81641;BME280;71053;50.722;-1.944;2023-08-06T00:13:30;101048.46;;;13.20;82.05
81641;BME280;71053;50.722;-1.944;2023-08-06T00:15:56;101045.12;;;13.17;82.28
81641;BME280;71053;50.722;-1.944;2023-08-06T00:18:21;101052.73;;;13.10;82.65
81641;BME280;71053;50.722;-1.944;2023-08-06T00:20:46;101044.48;;;13.18;82.04
81641;BME280;71053;50.722;-1.944;2023-08-06T00:23:12;101047.50;;;13.16;82.31
81641;BME280;71053;50.722;-1.944;2023-08-06T00:25:37;101052.44;;;13.05;82.82
81641;BME280;71053;50.722;-1.944;2023-08-06T00:28:02;101052.31;;;13.09;82.98
81641;BME280;71053;50.722;-1.944;2023-08-06T00:30:27;101059.09;;;13.05;82.88
81641;BME280;71053;50.722;-1.944;2023-08-06T00:32:53;101061.88;;;13.02;82.88
81641;BME280;71053;50.722;-1.944;2023-08-06T00:35:18;101069.64;;;13.02;82.90
81641;BME280;71053;50.722;-1.944;2023-08-06T00:37:43;101072.62;;;13.02;83.01
81641;BME280;71053;50.722;-1.944;2023-08-06T00:40:09;101073.20;;;13.00;83.22
81641;BME280;71053;50.722;-1.944;2023-08-06T00:42:34;101072.92;;;12.91;83.56
81641;BME280;71053;50.722;-1.944;2023-08-06T00:45:00;101074.22;;;12.96;83.63
81641;BME280;71053;50.722;-1.944;2023-08-06T00:47:25;101083.02;;;12.97;83.88
81641;BME280;71053;50.722;-1.944;2023-08-06T00:49:50;101082.51;;;12.94;84.04
81641;BME280;71053;50.722;-1.944;2023-08-06T00:52:15;101086.90;;;12.97;83.79
81641;BME280;71053;50.722;-1.944;2023-08-06T00:54:41;101085.33;;;13.01;83.41
81641;BME280;71053;50.722;-1.944;2023-08-06T00:57:07;101091.22;;;12.82;84.32
81641;BME280;71053;50.722;-1.944;2023-08-06T00:59:32;101092.12;;;12.72;84.90
81641;BME280;71053;50.722;-1.944;2023-08-06T01:01:57;101095.90;;;12.85;84.05
81641;BME280;71053;50.722;-1.944;2023-08-06T01:04:23;101100.12;;;12.77;84.62
81641;BME280;71053;50.722;-1.944;2023-08-06T01:06:48;101102.79;;;12.78;84.21
81641;BME280;71053;50.722;-1.944;2023-08-06T01:09:24;101106.43;;;12.74;84.46
81641;BME280;71053;50.722;-1.944;2023-08-06T01:11:44;101106.52;;;12.74;84.34
81641;BME280;71053;50.722;-1.944;2023-08-06T01:14:08;101105.82;;;12.78;84.00
81641;BME280;71053;50.722;-1.944;2023-08-06T01:16:30;101108.31;;;12.78;84.04
81641;BME280;71053;50.722;-1.944;2023-08-06T01:18:54;101111.34;;;12.81;83.70
81641;BME280;71053;50.722;-1.944;2023-08-06T01:21:19;101113.63;;;12.75;83.97
81641;BME280;71053;50.722;-1.944;2023-08-06T01:23:46;101114.11;;;12.65;84.09
81641;BME280;71053;50.722;-1.944;2023-08-06T01:26:15;101117.94;;;12.57;84.35
81641;BME280;71053;50.722;-1.944;2023-08-06T01:28:40;101118.65;;;12.43;85.12
81641;BME280;71053;50.722;-1.944;2023-08-06T01:31:04;101124.22;;;12.47;84.97
81641;BME280;71053;50.722;-1.944;2023-08-06T01:33:28;101128.23;;;12.40;85.38
81641;BME280;71053;50.722;-1.944;2023-08-06T01:35:53;101136.08;;;12.46;84.87
81641;BME280;71053;50.722;-1.944;2023-08-06T01:38:17;101143.48;;;12.43;85.04
81641;BME280;71053;50.722;-1.944;2023-08-06T01:40:42;101147.43;;;12.44;84.94
81641;BME280;71053;50.722;-1.944;2023-08-06T01:43:07;101156.85;;;12.49;84.71
81641;BME280;71053;50.722;-1.944;2023-08-06T01:45:33;101158.64;;;12.54;84.38
81641;BME280;71053;50.722;-1.944;2023-08-06T01:47:58;101164.82;;;12.49;84.95
81641;BME280;71053;50.722;-1.944;2023-08-06T01:50:24;101164.62;;;12.52;84.35
81641;BME280;71053;50.722;-1.944;2023-08-06T01:52:49;101166.61;;;12.50;84.77
81641;BME280;71053;50.722;-1.944;2023-08-06T01:55:14;101171.23;;;12.49;84.75
81641;BME280;71053;50.722;-1.944;2023-08-06T01:57:40;101170.92;;;12.42;85.21
81641;BME280;71053;50.722;-1.944;2023-08-06T02:00:06;101172.94;;;12.40;84.92
81641;BME280;71053;50.722;-1.944;2023-08-06T02:02:30;101171.19;;;12.43;84.98
81641;BME280;71053;50.722;-1.944;2023-08-06T02:04:56;101174.11;;;12.37;85.12
81641;BME280;71053;50.722;-1.944;2023-08-06T02:07:21;101173.70;;;12.30;85.53
81641;BME280;71053;50.722;-1.944;2023-08-06T02:09:46;101173.97;;;12.25;85.39
81641;BME280;71053;50.722;-1.944;2023-08-06T02:12:12;101175.69;;;12.38;85.34
81641;BME280;71053;50.722;-1.944;2023-08-06T02:14:37;101178.90;;;12.39;84.98
81641;BME280;71053;50.722;-1.944;2023-08-06T02:17:02;101179.74;;;12.34;85.34
81641;BME280;71053;50.722;-1.944;2023-08-06T02:19:28;101183.53;;;12.34;85.29
81641;BME280;71053;50.722;-1.944;2023-08-06T02:21:53;101184.52;;;12.38;84.94
81641;BME280;71053;50.722;-1.944;2023-08-06T02:24:18;101190.75;;;12.39;84.93
81641;BME280;71053;50.722;-1.944;2023-08-06T02:26:44;101187.31;;;12.39;85.02
81641;BME280;71053;50.722;-1.944;2023-08-06T02:29:09;101188.45;;;12.17;86.54
81641;BME280;71053;50.722;-1.944;2023-08-06T02:31:34;101187.55;;;12.23;85.45
81641;BME280;71053;50.722;-1.944;2023-08-06T02:34:00;101182.52;;;12.26;85.74
81641;BME280;71053;50.722;-1.944;2023-08-06T02:36:25;101185.50;;;12.29;85.34
81641;BME280;71053;50.722;-1.944;2023-08-06T02:38:51;101185.83;;;12.20;85.41
81641;BME280;71053;50.722;-1.944;2023-08-06T02:41:16;101187.17;;;12.14;85.75
81641;BME280;71053;50.722;-1.944;2023-08-06T02:43:41;101189.19;;;12.08;86.19
81641;BME280;71053;50.722;-1.944;2023-08-06T02:46:07;101188.98;;;12.07;86.37
81641;BME280;71053;50.722;-1.944;2023-08-06T02:48:32;101189.44;;;12.09;86.18
81641;BME280;71053;50.722;-1.944;2023-08-06T02:50:58;101194.18;;;12.05;86.47
81641;BME280;71053;50.722;-1.944;2023-08-06T02:53:23;101195.64;;;12.01;86.91
81641;BME280;71053;50.722;-1.944;2023-08-06T02:55:48;101194.07;;;12.13;86.19
81641;BME280;71053;50.722;-1.944;2023-08-06T02:58:13;101199.34;;;12.15;86.48
81641;BME280;71053;50.722;-1.944;2023-08-06T03:00:39;101198.53;;;12.15;86.35
81641;BME280;71053;50.722;-1.944;2023-08-06T03:03:04;101199.60;;;12.13;86.72
81641;BME280;71053;50.722;-1.944;2023-08-06T03:05:29;101202.29;;;12.14;86.32
81641;BME280;71053;50.722;-1.944;2023-08-06T03:07:55;101207.73;;;12.16;86.37
81641;BME280;71053;50.722;-1.944;2023-08-06T03:10:20;101208.37;;;12.06;86.87
81641;BME280;71053;50.722;-1.944;2023-08-06T03:12:45;101208.62;;;12.04;87.07
81641;BME280;71053;50.722;-1.944;2023-08-06T03:15:10;101204.46;;;12.09;86.99
81641;BME280;71053;50.722;-1.944;2023-08-06T03:17:36;101203.47;;;12.15;86.67
81641;BME280;71053;50.722;-1.944;2023-08-06T03:20:01;101209.65;;;12.12;86.70
81641;BME280;71053;50.722;-1.944;2023-08-06T03:22:26;101207.90;;;12.10;86.98
81641;BME280;71053;50.722;-1.944;2023-08-06T03:24:52;101209.37;;;12.09;87.10
81641;BME280;71053;50.722;-1.944;2023-08-06T03:27:17;101209.32;;;12.02;87.53
81641;BME280;71053;50.722;-1.944;2023-08-06T03:29:42;101208.35;;;11.83;88.70
81641;BME280;71053;50.722;-1.944;2023-08-06T03:32:08;101207.61;;;11.89;88.17
81641;BME280;71053;50.722;-1.944;2023-08-06T03:34:33;101207.63;;;11.92;88.06
81641;BME280;71053;50.722;-1.944;2023-08-06T03:36:58;101201.85;;;11.96;87.97
81641;BME280;71053;50.722;-1.944;2023-08-06T03:39:24;101200.09;;;11.97;88.09
81641;BME280;71053;50.722;-1.944;2023-08-06T03:41:49;101198.35;;;11.99;88.00
81641;BME280;71053;50.722;-1.944;2023-08-06T03:44:15;101199.87;;;11.95;88.10
81641;BME280;71053;50.722;-1.944;2023-08-06T03:46:40;101200.89;;;11.94;88.35
81641;BME280;71053;50.722;-1.944;2023-08-06T03:49:05;101202.04;;;11.89;88.85
81641;BME280;71053;50.722;-1.944;2023-08-06T03:51:31;101195.93;;;11.88;88.80
81641;BME280;71053;50.722;-1.944;2023-08-06T03:53:56;101196.71;;;11.81;89.43
81641;BME280;71053;50.722;-1.944;2023-08-06T03:56:21;101200.53;;;11.64;90.29
81641;BME280;71053;50.722;-1.944;2023-08-06T03:58:47;101206.63;;;11.54;91.64
81641;BME280;71053;50.722;-1.944;2023-08-06T04:01:12;101207.63;;;11.45;91.78
81641;BME280;71053;50.722;-1.944;2023-08-06T04:03:38;101207.15;;;11.57;91.00
81641;BME280;71053;50.722;-1.944;2023-08-06T04:06:03;101212.75;;;11.61;90.82
81641;BME280;71053;50.722;-1.944;2023-08-06T04:08:28;101224.08;;;11.65;90.89
81641;BME280;71053;50.722;-1.944;2023-08-06T04:10:54;101226.78;;;11.67;91.19
81641;BME280;71053;50.722;-1.944;2023-08-06T04:13:19;101229.19;;;11.76;91.11
81641;BME280;71053;50.722;-1.944;2023-08-06T04:15:45;101226.39;;;11.81;91.23
81641;BME280;71053;50.722;-1.944;2023-08-06T04:18:10;101227.52;;;11.80;90.97
81641;BME280;71053;50.722;-1.944;2023-08-06T04:20:43;101228.93;;;11.82;90.93
81641;BME280;71053;50.722;-1.944;2023-08-06T04:23:05;101230.69;;;11.85;91.08
81641;BME280;71053;50.722;-1.944;2023-08-06T04:25:26;101229.88;;;11.88;91.19
81641;BME280;71053;50.722;-1.944;2023-08-06T04:27:51;101235.84;;;11.81;91.20
81641;BME280;71053;50.722;-1.944;2023-08-06T04:30:17;101239.39;;;11.82;91.15
81641;BME280;71053;50.722;-1.944;2023-08-06T04:32:42;101242.04;;;11.68;91.67
81641;BME280;71053;50.722;-1.944;2023-08-06T04:35:07;101247.06;;;11.75;91.76
81641;BME280;71053;50.722;-1.944;2023-08-06T04:37:33;101249.79;;;11.73;91.79
81641;BME280;71053;50.722;-1.944;2023-08-06T04:39:58;101253.58;;;11.71;91.75
81641;BME280;71053;50.722;-1.944;2023-08-06T04:42:23;101255.08;;;11.70;91.73
81641;BME280;71053;50.722;-1.944;2023-08-06T04:44:48;101258.08;;;11.67;91.75
81641;BME280;71053;50.722;-1.944;2023-08-06T04:47:14;101259.22;;;11.70;92.04
81641;BME280;71053;50.722;-1.944;2023-08-06T04:49:39;101258.71;;;11.69;91.96
81641;BME280;71053;50.722;-1.944;2023-08-06T04:52:05;101261.14;;;11.62;92.44
81641;BME280;71053;50.722;-1.944;2023-08-06T04:54:30;101265.60;;;11.74;91.97
81641;BME280;71053;50.722;-1.944;2023-08-06T04:56:55;101263.22;;;11.79;91.93
81641;BME280;71053;50.722;-1.944;2023-08-06T04:59:20;101264.76;;;11.83;91.83
81641;BME280;71053;50.722;-1.944;2023-08-06T05:01:46;101265.27;;;11.83;91.71
81641;BME280;71053;50.722;-1.944;2023-08-06T05:04:11;101267.95;;;11.88;91.82
81641;BME280;71053;50.722;-1.944;2023-08-06T05:06:36;101272.85;;;11.87;91.79
81641;BME280;71053;50.722;-1.944;2023-08-06T05:09:02;101271.94;;;11.80;91.99
81641;BME280;71053;50.722;-1.944;2023-08-06T05:11:27;101272.59;;;11.78;91.97
81641;BME280;71053;50.722;-1.944;2023-08-06T05:13:53;101272.70;;;11.84;91.79
81641;BME280;71053;50.722;-1.944;2023-08-06T05:16:18;101271.46;;;11.82;91.88
81641;BME280;71053;50.722;-1.944;2023-08-06T05:18:43;101272.16;;;11.78;92.18
81641;BME280;71053;50.722;-1.944;2023-08-06T05:21:09;101275.21;;;11.78;92.17
81641;BME280;71053;50.722;-1.944;2023-08-06T05:23:34;101278.53;;;11.67;92.67
81641;BME280;71053;50.722;-1.944;2023-08-06T05:25:59;101277.94;;;11.73;92.37
81641;BME280;71053;50.722;-1.944;2023-08-06T05:28:25;101280.48;;;11.75;92.35
81641;BME280;71053;50.722;-1.944;2023-08-06T05:30:50;101285.46;;;11.82;92.48
81641;BME280;71053;50.722;-1.944;2023-08-06T05:33:16;101284.48;;;11.84;92.06
81641;BME280;71053;50.722;-1.944;2023-08-06T05:35:41;101287.57;;;11.92;92.29
81641;BME280;71053;50.722;-1.944;2023-08-06T05:38:06;101290.06;;;11.90;92.21
81641;BME280;71053;50.722;-1.944;2023-08-06T05:40:33;101293.98;;;11.91;92.49
81641;BME280;71053;50.722;-1.944;2023-08-06T05:42:57;101294.07;;;11.92;92.48
81641;BME280;71053;50.722;-1.944;2023-08-06T05:45:22;101297.79;;;11.99;92.33
81641;BME280;71053;50.722;-1.944;2023-08-06T05:47:48;101299.46;;;11.95;92.91
81641;BME280;71053;50.722;-1.944;2023-08-06T05:50:13;101303.54;;;12.02;92.67
81641;BME280;71053;50.722;-1.944;2023-08-06T05:52:39;101304.79;;;12.08;92.25
81641;BME280;71053;50.722;-1.944;2023-08-06T05:55:05;101307.82;;;12.08;92.34
81641;BME280;71053;50.722;-1.944;2023-08-06T05:57:29;101310.89;;;12.09;92.09
81641;BME280;71053;50.722;-1.944;2023-08-06T05:59:55;101317.19;;;12.18;91.94
81641;BME280;71053;50.722;-1.944;2023-08-06T06:02:20;101322.18;;;12.23;92.25
81641;BME280;71053;50.722;-1.944;2023-08-06T06:04:45;101328.27;;;12.24;91.88
81641;BME280;71053;50.722;-1.944;2023-08-06T06:07:11;101334.79;;;12.32;91.79
81641;BME280;71053;50.722;-1.944;2023-08-06T06:09:36;101335.39;;;12.38;91.54
81641;BME280;71053;50.722;-1.944;2023-08-06T06:12:02;101337.85;;;12.48;91.13
81641;BME280;71053;50.722;-1.944;2023-08-06T06:14:27;101335.93;;;12.50;91.47
81641;BME280;71053;50.722;-1.944;2023-08-06T06:16:52;101340.44;;;12.55;91.04
81641;BME280;71053;50.722;-1.944;2023-08-06T06:19:18;101342.69;;;12.70;90.17
81641;BME280;71053;50.722;-1.944;2023-08-06T06:21:43;101346.28;;;12.73;90.25
81641;BME280;71053;50.722;-1.944;2023-08-06T06:24:08;101347.05;;;12.77;89.80
81641;BME280;71053;50.722;-1.944;2023-08-06T06:26:34;101348.06;;;12.85;89.62
81641;BME280;71053;50.722;-1.944;2023-08-06T06:28:59;101353.38;;;12.88;89.38
81641;BME280;71053;50.722;-1.944;2023-08-06T06:31:24;101358.36;;;12.91;89.59
81641;BME280;71053;50.722;-1.944;2023-08-06T06:33:50;101355.17;;;13.10;89.03
81641;BME280;71053;50.722;-1.944;2023-08-06T06:36:15;101354.25;;;13.13;88.49
81641;BME280;71053;50.722;-1.944;2023-08-06T06:38:41;101354.58;;;13.18;88.33
81641;BME280;71053;50.722;-1.944;2023-08-06T06:41:06;101353.11;;;13.25;87.79
81641;BME280;71053;50.722;-1.944;2023-08-06T06:43:32;101353.69;;;13.37;87.49
81641;BME280;71053;50.722;-1.944;2023-08-06T06:45:57;101359.05;;;13.46;87.07
81641;BME280;71053;50.722;-1.944;2023-08-06T06:48:22;101360.94;;;13.45;87.74
81641;BME280;71053;50.722;-1.944;2023-08-06T06:50:48;101366.31;;;13.61;86.15
81641;BME280;71053;50.722;-1.944;2023-08-06T06:53:13;101368.28;;;13.72;85.71
81641;BME280;71053;50.722;-1.944;2023-08-06T06:55:38;101367.95;;;13.83;85.23
81641;BME280;71053;50.722;-1.944;2023-08-06T06:58:03;101371.56;;;13.90;84.93
81641;BME280;71053;50.722;-1.944;2023-08-06T07:00:29;101379.52;;;13.97;83.95
81641;BME280;71053;50.722;-1.944;2023-08-06T07:02:54;101369.33;;;14.09;84.33
81641;BME280;71053;50.722;-1.944;2023-08-06T07:05:19;101376.80;;;14.12;83.07
81641;BME280;71053;50.722;-1.944;2023-08-06T07:07:45;101369.17;;;14.00;84.29
81641;BME280;71053;50.722;-1.944;2023-08-06T07:10:10;101380.28;;;14.20;83.70
81641;BME280;71053;50.722;-1.944;2023-08-06T07:12:35;101374.13;;;14.30;83.49
81641;BME280;71053;50.722;-1.944;2023-08-06T07:15:01;101372.01;;;14.41;82.33
81641;BME280;71053;50.722;-1.944;2023-08-06T07:17:26;101372.14;;;14.51;82.28
81641;BME280;71053;50.722;-1.944;2023-08-06T07:19:51;101371.12;;;14.45;82.05
81641;BME280;71053;50.722;-1.944;2023-08-06T07:22:16;101367.56;;;14.53;82.44
81641;BME280;71053;50.722;-1.944;2023-08-06T07:24:42;101363.63;;;14.64;81.37
81641;BME280;71053;50.722;-1.944;2023-08-06T07:27:08;101372.79;;;14.79;80.52
81641;BME280;71053;50.722;-1.944;2023-08-06T07:29:33;101376.73;;;14.95;80.76
81641;BME280;71053;50.722;-1.944;2023-08-06T07:31:58;101367.24;;;14.94;80.06
81641;BME280;71053;50.722;-1.944;2023-08-06T07:34:23;101370.00;;;15.13;79.64
81641;BME280;71053;50.722;-1.944;2023-08-06T07:36:49;101362.36;;;15.17;79.31
81641;BME280;71053;50.722;-1.944;2023-08-06T07:39:14;101371.94;;;15.32;78.44
81641;BME280;71053;50.722;-1.944;2023-08-06T07:41:39;101367.57;;;15.34;78.36
81641;BME280;71053;50.722;-1.944;2023-08-06T07:44:04;101371.27;;;15.43;76.71
81641;BME280;71053;50.722;-1.944;2023-08-06T07:46:30;101373.13;;;15.37;76.99
81641;BME280;71053;50.722;-1.944;2023-08-06T07:48:55;101364.29;;;15.51;77.06
81641;BME280;71053;50.722;-1.944;2023-08-06T07:51:20;101371.52;;;15.47;76.12
81641;BME280;71053;50.722;-1.944;2023-08-06T07:53:45;101359.96;;;15.40;77.23
81641;BME280;71053;50.722;-1.944;2023-08-06T07:56:11;101367.67;;;15.45;77.49
81641;BME280;71053;50.722;-1.944;2023-08-06T07:58:36;101367.91;;;15.40;77.40
81641;BME280;71053;50.722;-1.944;2023-08-06T08:01:01;101371.08;;;15.33;76.76
81641;BME280;71053;50.722;-1.944;2023-08-06T08:03:26;101371.10;;;15.31;76.97
81641;BME280;71053;50.722;-1.944;2023-08-06T08:05:55;101370.40;;;15.38;76.17
81641;BME280;71053;50.722;-1.944;2023-08-06T08:08:17;101368.14;;;15.41;76.36
81641;BME280;71053;50.722;-1.944;2023-08-06T08:10:42;101368.69;;;15.49;77.14
81641;BME280;71053;50.722;-1.944;2023-08-06T08:13:07;101367.39;;;15.55;77.21
81641;BME280;71053;50.722;-1.944;2023-08-06T08:15:33;101374.31;;;15.62;77.17
81641;BME280;71053;50.722;-1.944;2023-08-06T08:17:58;101372.72;;;15.70;75.42
81641;BME280;71053;50.722;-1.944;2023-08-06T08:20:23;101368.72;;;15.96;74.36
81641;BME280;71053;50.722;-1.944;2023-08-06T08:22:48;101375.17;;;16.18;73.51
81641;BME280;71053;50.722;-1.944;2023-08-06T08:25:13;101371.64;;;16.28;72.96
81641;BME280;71053;50.722;-1.944;2023-08-06T08:27:38;101371.68;;;16.33;73.26
81641;BME280;71053;50.722;-1.944;2023-08-06T08:30:05;101371.63;;;16.36;73.58
81641;BME280;71053;50.722;-1.944;2023-08-06T08:32:29;101371.60;;;16.54;72.64
81641;BME280;71053;50.722;-1.944;2023-08-06T08:34:54;101367.54;;;16.57;72.12
81641;BME280;71053;50.722;-1.944;2023-08-06T08:37:19;101375.25;;;16.64;71.41
81641;BME280;71053;50.722;-1.944;2023-08-06T08:39:44;101375.52;;;16.84;69.84
81641;BME280;71053;50.722;-1.944;2023-08-06T08:42:10;101378.60;;;16.82;71.27
81641;BME280;71053;50.722;-1.944;2023-08-06T08:44:35;101379.92;;;16.62;71.63
81641;BME280;71053;50.722;-1.944;2023-08-06T08:47:00;101375.58;;;16.81;70.66
81641;BME280;71053;50.722;-1.944;2023-08-06T08:49:26;101376.12;;;16.84;71.01
81641;BME280;71053;50.722;-1.944;2023-08-06T08:51:52;101380.83;;;16.90;71.88
81641;BME280;71053;50.722;-1.944;2023-08-06T08:54:17;101385.15;;;16.82;70.45
81641;BME280;71053;50.722;-1.944;2023-08-06T08:56:42;101385.25;;;16.79;70.27
81641;BME280;71053;50.722;-1.944;2023-08-06T08:59:07;101381.69;;;16.84;69.99
81641;BME280;71053;50.722;-1.944;2023-08-06T09:01:33;101370.88;;;16.96;69.16
81641;BME280;71053;50.722;-1.944;2023-08-06T09:03:58;101385.69;;;17.00;68.55
81641;BME280;71053;50.722;-1.944;2023-08-06T09:06:23;101379.69;;;16.92;70.64
81641;BME280;71053;50.722;-1.944;2023-08-06T09:08:53;101384.97;;;16.69;70.22
81641;BME280;71053;50.722;-1.944;2023-08-06T09:11:14;101387.12;;;16.67;70.66
81641;BME280;71053;50.722;-1.944;2023-08-06T09:13:39;101383.53;;;16.78;70.13
81641;BME280;71053;50.722;-1.944;2023-08-06T09:16:04;101388.14;;;16.66;70.92
81641;BME280;71053;50.722;-1.944;2023-08-06T09:18:30;101385.17;;;16.75;71.33
81641;BME280;71053;50.722;-1.944;2023-08-06T09:20:55;101375.72;;;16.85;71.10
81641;BME280;71053;50.722;-1.944;2023-08-06T09:23:20;101393.13;;;16.88;68.03
81641;BME280;71053;50.722;-1.944;2023-08-06T09:25:46;101386.34;;;16.84;68.34
81641;BME280;71053;50.722;-1.944;2023-08-06T09:28:11;101386.97;;;16.88;67.46
81641;BME280;71053;50.722;-1.944;2023-08-06T09:30:37;101381.58;;;16.93;66.59
81641;BME280;71053;50.722;-1.944;2023-08-06T09:33:01;101391.22;;;16.98;66.19
81641;BME280;71053;50.722;-1.944;2023-08-06T09:35:28;101400.05;;;16.99;66.82
81641;BME280;71053;50.722;-1.944;2023-08-06T09:37:51;101391.63;;;16.99;68.04
81641;BME280;71053;50.722;-1.944;2023-08-06T09:40:26;101391.10;;;17.05;67.68
81641;BME280;71053;50.722;-1.944;2023-08-06T09:42:42;101385.68;;;17.12;66.39
81641;BME280;71053;50.722;-1.944;2023-08-06T09:45:07;101386.45;;;17.16;66.86
81641;BME280;71053;50.722;-1.944;2023-08-06T09:47:32;101394.96;;;17.27;65.82
81641;BME280;71053;50.722;-1.944;2023-08-06T09:49:57;101393.15;;;17.36;66.45
81641;BME280;71053;50.722;-1.944;2023-08-06T09:52:22;101389.46;;;17.47;65.34
81641;BME280;71053;50.722;-1.944;2023-08-06T09:54:48;101387.75;;;17.61;63.02
81641;BME280;71053;50.722;-1.944;2023-08-06T09:57:15;101400.34;;;17.77;63.68
81641;BME280;71053;50.722;-1.944;2023-08-06T09:59:39;101393.95;;;17.63;64.42
81641;BME280;71053;50.722;-1.944;2023-08-06T10:02:07;101404.08;;;17.77;64.77
81641;BME280;71053;50.722;-1.944;2023-08-06T10:04:29;101390.74;;;17.77;66.40
81641;BME280;71053;50.722;-1.944;2023-08-06T10:06:53;101396.97;;;17.79;64.86
81641;BME280;71053;50.722;-1.944;2023-08-06T10:09:18;101394.74;;;17.79;65.01
81641;BME280;71053;50.722;-1.944;2023-08-06T10:11:47;101402.67;;;17.91;65.85
81641;BME280;71053;50.722;-1.944;2023-08-06T10:14:16;101401.64;;;18.12;65.68
81641;BME280;71053;50.722;-1.944;2023-08-06T10:16:35;101405.72;;;18.12;60.59
81641;BME280;71053;50.722;-1.944;2023-08-06T10:18:59;101411.50;;;17.97;58.19
81641;BME280;71053;50.722;-1.944;2023-08-06T10:21:24;101402.87;;;18.06;59.40
81641;BME280;71053;50.722;-1.944;2023-08-06T10:23:54;101407.43;;;18.09;61.07
81641;BME280;71053;50.722;-1.944;2023-08-06T10:26:16;101404.41;;;18.23;60.85
81641;BME280;71053;50.722;-1.944;2023-08-06T10:28:40;101396.00;;;18.32;61.79
81641;BME280;71053;50.722;-1.944;2023-08-06T10:31:05;101396.63;;;18.27;57.46
81641;BME280;71053;50.722;-1.944;2023-08-06T10:33:40;101394.11;;;18.46;57.41
81641;BME280;71053;50.722;-1.944;2023-08-06T10:36:01;101392.00;;;18.47;58.07
81641;BME280;71053;50.722;-1.944;2023-08-06T10:38:21;101401.41;;;18.53;57.48
81641;BME280;71053;50.722;-1.944;2023-08-06T10:40:49;101409.11;;;18.58;58.35
81641;BME280;71053;50.722;-1.944;2023-08-06T10:45:37;101399.07;;;18.66;57.66
81641;BME280;71053;50.722;-1.944;2023-08-06T10:48:01;101405.41;;;18.81;58.15
81641;BME280;71053;50.722;-1.944;2023-08-06T10:50:26;101396.11;;;18.78;60.26
81641;BME280;71053;50.722;-1.944;2023-08-06T10:52:51;101394.06;;;18.65;61.11
81641;BME280;71053;50.722;-1.944;2023-08-06T10:55:22;101405.64;;;18.55;60.87
81641;BME280;71053;50.722;-1.944;2023-08-06T10:57:41;101420.95;;;18.67;59.66
81641;BME280;71053;50.722;-1.944;2023-08-06T11:00:09;101411.12;;;18.59;59.34
81641;BME280;71053;50.722;-1.944;2023-08-06T11:02:33;101408.18;;;18.60;60.30
81641;BME280;71053;50.722;-1.944;2023-08-06T11:04:56;101412.65;;;18.70;59.33
81641;BME280;71053;50.722;-1.944;2023-08-06T11:07:22;101404.25;;;19.09;57.68
81641;BME280;71053;50.722;-1.944;2023-08-06T11:09:50;101411.58;;;18.96;57.28
81641;BME280;71053;50.722;-1.944;2023-08-06T11:12:12;101409.04;;;18.89;55.56
81641;BME280;71053;50.722;-1.944;2023-08-06T11:14:37;101409.50;;;19.01;56.41
81641;BME280;71053;50.722;-1.944;2023-08-06T11:17:02;101407.70;;;19.00;58.17
81641;BME280;71053;50.722;-1.944;2023-08-06T11:19:27;101407.16;;;18.92;57.76
81641;BME280;71053;50.722;-1.944;2023-08-06T11:21:52;101415.07;;;18.79;58.92
81641;BME280;71053;50.722;-1.944;2023-08-06T11:24:17;101420.93;;;18.77;57.63
81641;BME280;71053;50.722;-1.944;2023-08-06T11:26:43;101410.95;;;19.06;56.88
81641;BME280;71053;50.722;-1.944;2023-08-06T11:29:08;101405.54;;;19.15;56.68
81641;BME280;71053;50.722;-1.944;2023-08-06T11:31:36;101394.33;;;18.92;58.12
81641;BME280;71053;50.722;-1.944;2023-08-06T11:33:58;101408.98;;;18.96;56.15
81641;BME280;71053;50.722;-1.944;2023-08-06T11:36:28;101407.11;;;18.82;56.77
81641;BME280;71053;50.722;-1.944;2023-08-06T11:38:48;101402.84;;;18.88;56.44
81641;BME280;71053;50.722;-1.944;2023-08-06T11:41:13;101398.13;;;18.89;57.13
81641;BME280;71053;50.722;-1.944;2023-08-06T11:43:38;101402.06;;;18.94;56.52
81641;BME280;71053;50.722;-1.944;2023-08-06T11:46:04;101407.75;;;19.32;56.64
81641;BME280;71053;50.722;-1.944;2023-08-06T11:48:29;101401.44;;;19.29;55.94
81641;BME280;71053;50.722;-1.944;2023-08-06T11:50:54;101397.53;;;19.61;54.92
81641;BME280;71053;50.722;-1.944;2023-08-06T11:53:19;101402.21;;;19.35;53.61
81641;BME280;71053;50.722;-1.944;2023-08-06T11:55:44;101393.34;;;19.63;54.52
81641;BME280;71053;50.722;-1.944;2023-08-06T11:58:10;101399.64;;;19.93;53.90
81641;BME280;71053;50.722;-1.944;2023-08-06T12:00:36;101396.08;;;19.86;55.22
81641;BME280;71053;50.722;-1.944;2023-08-06T12:02:59;101403.06;;;19.94;54.35
81641;BME280;71053;50.722;-1.944;2023-08-06T12:05:30;101400.85;;;19.91;53.55
81641;BME280;71053;50.722;-1.944;2023-08-06T12:07:51;101397.58;;;19.97;53.66
81641;BME280;71053;50.722;-1.944;2023-08-06T12:10:16;101393.55;;;19.66;55.35
81641;BME280;71053;50.722;-1.944;2023-08-06T12:12:40;101399.04;;;19.59;55.06
81641;BME280;71053;50.722;-1.944;2023-08-06T12:15:06;101397.84;;;19.31;55.33
81641;BME280;71053;50.722;-1.944;2023-08-06T12:17:31;101395.05;;;19.50;54.73
81641;BME280;71053;50.722;-1.944;2023-08-06T12:19:55;101387.12;;;19.46;54.68
81641;BME280;71053;50.722;-1.944;2023-08-06T12:22:20;101394.61;;;19.50;56.26
81641;BME280;71053;50.722;-1.944;2023-08-06T12:24:46;101401.38;;;19.46;55.56
81641;BME280;71053;50.722;-1.944;2023-08-06T12:27:10;101410.99;;;19.25;56.20
81641;BME280;71053;50.722;-1.944;2023-08-06T12:29:36;101401.85;;;19.49;56.13
81641;BME280;71053;50.722;-1.944;2023-08-06T12:32:00;101400.54;;;19.45;55.27